DTTR

El Borma Airport

El Borma, Tunisia
METAR DTTR 161300Z 25014KT CAVOK 26/M00 Q1013 NOSIG
Observed Flight Rules
Nov-16 @ 13:00 UTC (3 hours ago) Visual Flight Rules
Wind Visibility Clouds
250° at 14 knots 10,000+ meters
  • Clear skies
Temperatures Readings
Current 26°C / 79°F
Dewpoint 0°C / 32°F
Humidity 18%
Altimeter 29.91" Hg
Pressure 1013 hPa
Elevation 259
METAR DTTR 161300Z 25014KT CAVOK 26/M00 Q1013 NOSIG
Observed Flight Rules
Nov-16 @ 13:00 UTC
(3 hours ago)
VFR
Wind Visibility
250° at 14 knots 10,000+ meters
Clouds
  • Clear skies
Temperature Dewpoint
26°C / 79°F 0°C / 32°F
Humidity Altimeter Pressure
18% 29.91" Hg 1013 hPa